sensor_id;sensor_type;location;lat;lon;timestamp;pressure;altitude;pressure_sealevel;temperature;humidity
12197;BME280;6161;43.014;25.840;2022-08-11T00:01:25;99958.19;;;22.54;nan
12197;BME280;6161;43.014;25.840;2022-08-11T00:03:57;99909.81;;;22.54;nan
12197;BME280;6161;43.014;25.840;2022-08-11T00:06:28;99899.69;;;22.55;nan
12197;BME280;6161;43.014;25.840;2022-08-11T00:11:31;99903.50;;;22.54;nan
12197;BME280;6161;43.014;25.840;2022-08-11T00:13:58;99885.19;;;22.54;nan
12197;BME280;6161;43.014;25.840;2022-08-11T00:16:24;99908.56;;;22.50;nan
12197;BME280;6161;43.014;25.840;2022-08-11T00:18:54;99912.78;;;22.46;nan
12197;BME280;6161;43.014;25.840;2022-08-11T00:21:22;99874.09;;;22.49;nan
12197;BME280;6161;43.014;25.840;2022-08-11T00:23:53;99902.69;;;22.47;nan
12197;BME280;6161;43.014;25.840;2022-08-11T00:28:47;99842.19;;;22.36;nan
12197;BME280;6161;43.014;25.840;2022-08-11T00:31:30;99920.44;;;22.24;nan
12197;BME280;6161;43.014;25.840;2022-08-11T00:38:52;99969.59;;;22.11;nan
12197;BME280;6161;43.014;25.840;2022-08-11T00:44:29;99871.31;;;21.98;nan
12197;BME280;6161;43.014;25.840;2022-08-11T01:08:45;99874.75;;;21.33;nan
12197;BME280;6161;43.014;25.840;2022-08-11T01:46:55;99861.59;;;20.35;nan
12197;BME280;6161;43.014;25.840;2022-08-11T01:49:39;99839.81;;;20.42;nan
12197;BME280;6161;43.014;25.840;2022-08-11T01:52:20;99828.72;;;20.43;nan
12197;BME280;6161;43.014;25.840;2022-08-11T01:57:33;99817.41;;;20.40;nan
12197;BME280;6161;43.014;25.840;2022-08-11T02:05:35;99831.41;;;20.37;nan
12197;BME280;6161;43.014;25.840;2022-08-11T02:08:41;99820.50;;;20.37;nan
12197;BME280;6161;43.014;25.840;2022-08-11T02:11:23;99835.59;;;20.39;nan
12197;BME280;6161;43.014;25.840;2022-08-11T02:15:01;99879.84;;;20.41;nan
12197;BME280;6161;43.014;25.840;2022-08-11T02:17:18;99878.78;;;20.36;nan
12197;BME280;6161;43.014;25.840;2022-08-11T02:22:45;99833.03;;;20.25;nan
12197;BME280;6161;43.014;25.840;2022-08-11T02:31:10;99877.72;;;19.89;nan
12197;BME280;6161;43.014;25.840;2022-08-11T02:34:04;99837.53;;;19.91;nan
12197;BME280;6161;43.014;25.840;2022-08-11T02:37:02;99864.31;;;19.87;nan
12197;BME280;6161;43.014;25.840;2022-08-11T02:39:50;99887.53;;;19.83;nan
12197;BME280;6161;43.014;25.840;2022-08-11T02:50:41;99808.06;;;19.66;nan
12197;BME280;6161;43.014;25.840;2022-08-11T02:53:50;99840.06;;;19.64;nan
12197;BME280;6161;43.014;25.840;2022-08-11T02:56:39;99824.34;;;19.59;nan
12197;BME280;6161;43.014;25.840;2022-08-11T03:10:59;99809.25;;;19.57;nan
12197;BME280;6161;43.014;25.840;2022-08-11T03:14:11;99861.94;;;19.49;nan
12197;BME280;6161;43.014;25.840;2022-08-11T03:31:06;99833.50;;;19.45;nan
12197;BME280;6161;43.014;25.840;2022-08-11T03:33:37;99819.88;;;19.45;nan
12197;BME280;6161;43.014;25.840;2022-08-11T03:39:46;99863.38;;;19.17;nan
12197;BME280;6161;43.014;25.840;2022-08-11T03:42:25;99793.56;;;19.24;nan
12197;BME280;6161;43.014;25.840;2022-08-11T03:45:04;99838.66;;;19.12;nan
12197;BME280;6161;43.014;25.840;2022-08-11T03:47:45;99802.72;;;19.17;nan
12197;BME280;6161;43.014;25.840;2022-08-11T04:07:56;99892.38;;;19.31;nan
12197;BME280;6161;43.014;25.840;2022-08-11T04:15:50;99849.69;;;19.32;nan
12197;BME280;6161;43.014;25.840;2022-08-11T04:24:03;99810.66;;;19.46;nan
12197;BME280;6161;43.014;25.840;2022-08-11T04:35:11;99828.16;;;19.65;nan
12197;BME280;6161;43.014;25.840;2022-08-11T04:43:49;99889.53;;;20.03;nan
12197;BME280;6161;43.014;25.840;2022-08-11T04:46:40;99867.84;;;20.29;nan
12197;BME280;6161;43.014;25.840;2022-08-11T04:56:05;99843.06;;;21.25;nan
12197;BME280;6161;43.014;25.840;2022-08-11T05:12:48;99922.00;;;22.52;nan
12197;BME280;6161;43.014;25.840;2022-08-11T05:15:19;99861.16;;;23.02;nan
12197;BME280;6161;43.014;25.840;2022-08-11T05:18:12;99883.63;;;23.35;nan
12197;BME280;6161;43.014;25.840;2022-08-11T05:21:05;99842.59;;;23.54;nan
12197;BME280;6161;43.014;25.840;2022-08-11T05:23:56;99821.53;;;23.54;nan
12197;BME280;6161;43.014;25.840;2022-08-11T05:26:46;99873.19;;;23.69;nan
12197;BME280;6161;43.014;25.840;2022-08-11T05:35:10;99882.38;;;23.56;nan
12197;BME280;6161;43.014;25.840;2022-08-11T05:37:42;99872.88;;;23.59;nan
12197;BME280;6161;43.014;25.840;2022-08-11T05:40:27;99887.84;;;23.56;nan
12197;BME280;6161;43.014;25.840;2022-08-11T05:43:12;99831.25;;;23.50;nan
12197;BME280;6161;43.014;25.840;2022-08-11T05:48:42;99872.75;;;23.47;nan
12197;BME280;6161;43.014;25.840;2022-08-11T05:54:18;99818.78;;;23.36;nan
12197;BME280;6161;43.014;25.840;2022-08-11T05:57:04;99899.34;;;23.15;nan
12197;BME280;6161;43.014;25.840;2022-08-11T06:02:03;99804.34;;;23.22;nan
12197;BME280;6161;43.014;25.840;2022-08-11T06:04:30;99864.72;;;23.27;nan
12197;BME280;6161;43.014;25.840;2022-08-11T06:06:59;99929.63;;;23.20;nan
12197;BME280;6161;43.014;25.840;2022-08-11T06:09:32;99889.84;;;23.42;nan
12197;BME280;6161;43.014;25.840;2022-08-11T06:14:35;99845.00;;;24.05;nan
12197;BME280;6161;43.014;25.840;2022-08-11T06:17:06;99869.09;;;24.34;nan
12197;BME280;6161;43.014;25.840;2022-08-11T06:19:42;99843.72;;;24.57;nan
12197;BME280;6161;43.014;25.840;2022-08-11T06:22:11;99888.19;;;24.89;nan
12197;BME280;6161;43.014;25.840;2022-08-11T06:24:40;99859.78;;;25.25;nan
12197;BME280;6161;43.014;25.840;2022-08-11T06:27:06;99828.03;;;25.53;nan
12197;BME280;6161;43.014;25.840;2022-08-11T06:29:35;99868.16;;;25.89;nan
12197;BME280;6161;43.014;25.840;2022-08-11T06:32:05;99882.13;;;25.99;nan
12197;BME280;6161;43.014;25.840;2022-08-11T06:37:28;99891.41;;;26.22;nan
12197;BME280;6161;43.014;25.840;2022-08-11T06:40:24;99859.53;;;26.09;nan
12197;BME280;6161;43.014;25.840;2022-08-11T06:45:30;99862.66;;;26.41;nan
12197;BME280;6161;43.014;25.840;2022-08-11T06:47:58;99856.66;;;26.45;nan
12197;BME280;6161;43.014;25.840;2022-08-11T06:50:26;99858.81;;;26.42;nan
12197;BME280;6161;43.014;25.840;2022-08-11T06:53:31;99858.13;;;26.76;nan
12197;BME280;6161;43.014;25.840;2022-08-11T06:55:59;99868.94;;;26.82;nan
12197;BME280;6161;43.014;25.840;2022-08-11T06:58:47;99850.72;;;26.64;nan
12197;BME280;6161;43.014;25.840;2022-08-11T07:01:45;99852.56;;;26.59;nan
12197;BME280;6161;43.014;25.840;2022-08-11T07:04:20;99863.41;;;26.66;nan
12197;BME280;6161;43.014;25.840;2022-08-11T07:10:22;99876.50;;;27.04;nan
12197;BME280;6161;43.014;25.840;2022-08-11T07:13:42;99867.63;;;27.31;nan
12197;BME280;6161;43.014;25.840;2022-08-11T07:23:11;99853.88;;;27.02;nan
12197;BME280;6161;43.014;25.840;2022-08-11T07:25:59;99845.78;;;27.12;nan
12197;BME280;6161;43.014;25.840;2022-08-11T07:28:46;99869.06;;;27.04;nan
12197;BME280;6161;43.014;25.840;2022-08-11T07:31:51;99872.31;;;27.01;nan
12197;BME280;6161;43.014;25.840;2022-08-11T07:34:21;99890.84;;;27.06;nan
12197;BME280;6161;43.014;25.840;2022-08-11T07:36:54;99863.19;;;26.84;nan
12197;BME280;6161;43.014;25.840;2022-08-11T07:39:26;99869.63;;;27.18;nan
12197;BME280;6161;43.014;25.840;2022-08-11T07:41:53;99825.94;;;27.44;nan
12197;BME280;6161;43.014;25.840;2022-08-11T07:44:20;99872.63;;;27.73;nan
12197;BME280;6161;43.014;25.840;2022-08-11T07:46:48;99861.47;;;27.62;nan
12197;BME280;6161;43.014;25.840;2022-08-11T07:49:37;99872.69;;;27.39;nan
12197;BME280;6161;43.014;25.840;2022-08-11T07:52:27;99845.97;;;27.39;nan
12197;BME280;6161;43.014;25.840;2022-08-11T07:55:05;99832.28;;;27.44;nan
12197;BME280;6161;43.014;25.840;2022-08-11T07:57:32;99848.94;;;27.55;nan
12197;BME280;6161;43.014;25.840;2022-08-11T08:00:17;99861.47;;;27.62;nan
12197;BME280;6161;43.014;25.840;2022-08-11T08:03:03;99858.44;;;27.81;nan
12197;BME280;6161;43.014;25.840;2022-08-11T08:05:48;99855.59;;;28.14;nan
12197;BME280;6161;43.014;25.840;2022-08-11T08:08:32;99856.28;;;28.05;nan
12197;BME280;6161;43.014;25.840;2022-08-11T08:11:19;99844.06;;;28.18;nan
12197;BME280;6161;43.014;25.840;2022-08-11T08:14:04;99863.03;;;28.36;nan
12197;BME280;6161;43.014;25.840;2022-08-11T08:19:32;99833.34;;;28.70;nan
12197;BME280;6161;43.014;25.840;2022-08-11T08:21:58;99845.75;;;28.68;nan
12197;BME280;6161;43.014;25.840;2022-08-11T08:24:26;99831.03;;;28.89;nan
12197;BME280;6161;43.014;25.840;2022-08-11T08:26:53;99842.59;;;29.13;nan
12197;BME280;6161;43.014;25.840;2022-08-11T08:29:26;99826.25;;;29.44;nan
12197;BME280;6161;43.014;25.840;2022-08-11T08:34:37;99842.38;;;30.05;nan
12197;BME280;6161;43.014;25.840;2022-08-11T08:37:05;99844.63;;;30.18;nan
12197;BME280;6161;43.014;25.840;2022-08-11T08:39:32;99850.88;;;29.93;nan
12197;BME280;6161;43.014;25.840;2022-08-11T08:42:02;99835.38;;;29.87;nan
12197;BME280;6161;43.014;25.840;2022-08-11T08:44:33;99831.53;;;29.98;nan
12197;BME280;6161;43.014;25.840;2022-08-11T08:47:02;99839.09;;;30.23;nan
12197;BME280;6161;43.014;25.840;2022-08-11T08:49:37;99828.41;;;30.42;nan
12197;BME280;6161;43.014;25.840;2022-08-11T08:52:05;99863.34;;;30.59;nan
12197;BME280;6161;43.014;25.840;2022-08-11T08:54:39;99815.50;;;30.84;nan
12197;BME280;6161;43.014;25.840;2022-08-11T08:57:08;99788.91;;;30.98;nan
12197;BME280;6161;43.014;25.840;2022-08-11T08:59:39;99835.72;;;31.15;nan
12197;BME280;6161;43.014;25.840;2022-08-11T09:02:06;99806.06;;;31.31;nan
12197;BME280;6161;43.014;25.840;2022-08-11T09:04:32;99828.78;;;31.02;nan
12197;BME280;6161;43.014;25.840;2022-08-11T09:06:59;99812.69;;;30.68;nan
12197;BME280;6161;43.014;25.840;2022-08-11T09:11:53;99807.75;;;29.97;nan
12197;BME280;6161;43.014;25.840;2022-08-11T09:14:42;99779.59;;;30.11;nan
12197;BME280;6161;43.014;25.840;2022-08-11T09:17:29;99818.19;;;30.48;nan
12197;BME280;6161;43.014;25.840;2022-08-11T09:20:04;99808.75;;;30.39;nan
12197;BME280;6161;43.014;25.840;2022-08-11T09:22:35;99796.03;;;30.48;nan
12197;BME280;6161;43.014;25.840;2022-08-11T09:25:21;99800.75;;;30.68;nan
12197;BME280;6161;43.014;25.840;2022-08-11T09:28:12;99794.16;;;30.95;nan
12197;BME280;6161;43.014;25.840;2022-08-11T09:30:47;99798.88;;;30.99;nan
12197;BME280;6161;43.014;25.840;2022-08-11T09:33:18;99741.78;;;31.14;nan
12197;BME280;6161;43.014;25.840;2022-08-11T09:35:45;99771.97;;;31.30;nan
12197;BME280;6161;43.014;25.840;2022-08-11T09:38:13;99765.59;;;31.45;nan
12197;BME280;6161;43.014;25.840;2022-08-11T09:46:08;99771.66;;;31.52;nan
12197;BME280;6161;43.014;25.840;2022-08-11T09:53:31;99750.81;;;31.60;nan
12197;BME280;6161;43.014;25.840;2022-08-11T09:55:58;99736.69;;;31.62;nan
12197;BME280;6161;43.014;25.840;2022-08-11T09:58:44;99756.00;;;31.82;nan
12197;BME280;6161;43.014;25.840;2022-08-11T10:01:11;99760.47;;;31.83;nan
12197;BME280;6161;43.014;25.840;2022-08-11T10:04:26;99750.44;;;31.98;nan
12197;BME280;6161;43.014;25.840;2022-08-11T10:06:48;99751.59;;;31.81;nan
12197;BME280;6161;43.014;25.840;2022-08-11T10:09:58;99734.00;;;31.31;nan
12197;BME280;6161;43.014;25.840;2022-08-11T10:12:30;99768.66;;;30.72;nan
12197;BME280;6161;43.014;25.840;2022-08-11T10:15:07;99765.63;;;30.63;nan
12197;BME280;6161;43.014;25.840;2022-08-11T10:17:56;99737.94;;;30.94;nan
12197;BME280;6161;43.014;25.840;2022-08-11T10:20:41;99755.34;;;31.36;nan
12197;BME280;6161;43.014;25.840;2022-08-11T10:23:11;99754.09;;;31.72;nan
12197;BME280;6161;43.014;25.840;2022-08-11T10:25:57;99741.56;;;31.95;nan
12197;BME280;6161;43.014;25.840;2022-08-11T10:28:41;99751.84;;;31.85;nan
12197;BME280;6161;43.014;25.840;2022-08-11T10:31:08;99745.44;;;31.89;nan
12197;BME280;6161;43.014;25.840;2022-08-11T10:33:53;99749.38;;;31.83;nan
12197;BME280;6161;43.014;25.840;2022-08-11T10:36:44;99722.69;;;31.87;nan
12197;BME280;6161;43.014;25.840;2022-08-11T10:39:16;99733.66;;;32.18;nan
12197;BME280;6161;43.014;25.840;2022-08-11T10:41:44;99741.41;;;32.21;nan
12197;BME280;6161;43.014;25.840;2022-08-11T10:44:31;99730.38;;;32.11;nan
12197;BME280;6161;43.014;25.840;2022-08-11T10:47:01;99741.84;;;31.89;nan
12197;BME280;6161;43.014;25.840;2022-08-11T10:49:46;99738.84;;;31.80;nan
12197;BME280;6161;43.014;25.840;2022-08-11T10:52:33;99744.09;;;31.82;nan
12197;BME280;6161;43.014;25.840;2022-08-11T10:55:18;99736.88;;;31.86;nan
12197;BME280;6161;43.014;25.840;2022-08-11T10:58:03;99729.91;;;31.88;nan
12197;BME280;6161;43.014;25.840;2022-08-11T11:00:47;99702.78;;;31.75;nan
12197;BME280;6161;43.014;25.840;2022-08-11T11:03:14;99730.91;;;31.38;nan
12197;BME280;6161;43.014;25.840;2022-08-11T11:05:42;99728.22;;;31.12;nan
12197;BME280;6161;43.014;25.840;2022-08-11T11:08:14;99714.38;;;31.07;nan
12197;BME280;6161;43.014;25.840;2022-08-11T11:11:00;99722.94;;;31.05;nan
12197;BME280;6161;43.014;25.840;2022-08-11T11:13:27;99722.13;;;31.05;nan
12197;BME280;6161;43.014;25.840;2022-08-11T11:16:13;99722.97;;;30.75;nan
12197;BME280;6161;43.014;25.840;2022-08-11T11:19:00;99703.31;;;30.81;nan
12197;BME280;6161;43.014;25.840;2022-08-11T11:21:29;99701.13;;;30.88;nan
12197;BME280;6161;43.014;25.840;2022-08-11T11:24:15;99721.00;;;30.75;nan
12197;BME280;6161;43.014;25.840;2022-08-11T11:37:11;99707.72;;;30.93;nan
12197;BME280;6161;43.014;25.840;2022-08-11T11:39:39;99690.28;;;30.92;nan
12197;BME280;6161;43.014;25.840;2022-08-11T11:42:06;99700.25;;;30.78;nan
12197;BME280;6161;43.014;25.840;2022-08-11T11:44:33;99713.00;;;30.74;nan
12197;BME280;6161;43.014;25.840;2022-08-11T11:47:02;99703.00;;;30.73;nan
12197;BME280;6161;43.014;25.840;2022-08-11T11:49:29;99718.53;;;30.74;nan
12197;BME280;6161;43.014;25.840;2022-08-11T11:51:58;99712.44;;;30.72;nan
12197;BME280;6161;43.014;25.840;2022-08-11T11:54:26;99706.91;;;30.77;nan
12197;BME280;6161;43.014;25.840;2022-08-11T11:56:54;99699.97;;;30.79;nan
12197;BME280;6161;43.014;25.840;2022-08-11T11:59:21;99684.72;;;30.82;nan
12197;BME280;6161;43.014;25.840;2022-08-11T12:02:07;99697.50;;;30.98;nan
12197;BME280;6161;43.014;25.840;2022-08-11T12:04:33;99720.50;;;30.94;nan
12197;BME280;6161;43.014;25.840;2022-08-11T12:07:02;99718.53;;;30.94;nan
12197;BME280;6161;43.014;25.840;2022-08-11T12:12:12;99704.13;;;30.92;nan
12197;BME280;6161;43.014;25.840;2022-08-11T12:14:57;99756.78;;;30.87;nan
12197;BME280;6161;43.014;25.840;2022-08-11T12:17:23;99691.41;;;30.86;nan
12197;BME280;6161;43.014;25.840;2022-08-11T12:19:49;99765.88;;;30.77;nan
12197;BME280;6161;43.014;25.840;2022-08-11T12:22:16;99707.72;;;30.62;nan
12197;BME280;6161;43.014;25.840;2022-08-11T12:28:23;99713.53;;;30.76;nan
12197;BME280;6161;43.014;25.840;2022-08-11T12:35:42;99702.47;;;30.81;nan
12197;BME280;6161;43.014;25.840;2022-08-11T12:38:08;99704.41;;;30.65;nan
12197;BME280;6161;43.014;25.840;2022-08-11T12:40:34;99704.41;;;30.60;nan
12197;BME280;6161;43.014;25.840;2022-08-11T12:43:21;99681.44;;;30.59;nan
12197;BME280;6161;43.014;25.840;2022-08-11T12:48:48;99701.09;;;30.78;nan
12197;BME280;6161;43.014;25.840;2022-08-11T12:51:35;99681.72;;;30.94;nan
12197;BME280;6161;43.014;25.840;2022-08-11T12:59:58;99683.31;;;31.10;nan
12197;BME280;6161;43.014;25.840;2022-08-11T13:02:44;99692.47;;;31.16;nan
12197;BME280;6161;43.014;25.840;2022-08-11T13:07:59;99678.59;;;31.21;nan
12197;BME280;6161;43.014;25.840;2022-08-11T13:10:25;99688.84;;;31.15;nan
12197;BME280;6161;43.014;25.840;2022-08-11T13:13:11;99680.22;;;31.27;nan
12197;BME280;6161;43.014;25.840;2022-08-11T13:15:38;99669.91;;;31.38;nan
12197;BME280;6161;43.014;25.840;2022-08-11T13:18:05;99655.25;;;31.42;nan
12197;BME280;6161;43.014;25.840;2022-08-11T13:20:34;99638.06;;;31.45;nan
12197;BME280;6161;43.014;25.840;2022-08-11T13:23:01;99689.69;;;31.21;nan
12197;BME280;6161;43.014;25.840;2022-08-11T13:25:30;99667.53;;;31.16;nan
12197;BME280;6161;43.014;25.840;2022-08-11T13:27:58;99662.78;;;31.26;nan
12197;BME280;6161;43.014;25.840;2022-08-11T13:30:27;99632.50;;;31.35;nan
12197;BME280;6161;43.014;25.840;2022-08-11T13:33:12;99681.88;;;31.28;nan
12197;BME280;6161;43.014;25.840;2022-08-11T13:35:38;99657.28;;;31.11;nan
12197;BME280;6161;43.014;25.840;2022-08-11T13:38:05;99666.41;;;31.11;nan
12197;BME280;6161;43.014;25.840;2022-08-11T13:40:31;99617.91;;;31.14;nan
12197;BME280;6161;43.014;25.840;2022-08-11T13:42:58;99664.47;;;31.17;nan
12197;BME280;6161;43.014;25.840;2022-08-11T13:45:25;99662.56;;;31.02;nan
12197;BME280;6161;43.014;25.840;2022-08-11T13:47:52;99673.06;;;31.05;nan
12197;BME280;6161;43.014;25.840;2022-08-11T13:50:19;99661.72;;;31.02;nan
12197;BME280;6161;43.014;25.840;2022-08-11T13:52:47;99647.59;;;31.08;nan
12197;BME280;6161;43.014;25.840;2022-08-11T13:55:14;99658.66;;;31.14;nan
12197;BME280;6161;43.014;25.840;2022-08-11T13:57:51;99664.44;;;31.22;nan
12197;BME280;6161;43.014;25.840;2022-08-11T14:00:17;99659.72;;;31.18;nan
12197;BME280;6161;43.014;25.840;2022-08-11T14:02:44;99644.78;;;31.19;nan
12197;BME280;6161;43.014;25.840;2022-08-11T14:05:25;99656.94;;;31.23;nan
12197;BME280;6161;43.014;25.840;2022-08-11T14:10:26;99650.34;;;31.19;nan
12197;BME280;6161;43.014;25.840;2022-08-11T14:12:58;99642.28;;;31.17;nan
12197;BME280;6161;43.014;25.840;2022-08-11T14:15:44;99667.53;;;31.05;nan
12197;BME280;6161;43.014;25.840;2022-08-11T14:18:20;99645.63;;;31.14;nan
12197;BME280;6161;43.014;25.840;2022-08-11T14:20:51;99698.28;;;31.14;nan
12197;BME280;6161;43.014;25.840;2022-08-11T14:23:40;99631.53;;;31.00;nan
12197;BME280;6161;43.014;25.840;2022-08-11T14:26:08;99650.97;;;30.85;nan
12197;BME280;6161;43.014;25.840;2022-08-11T14:28:59;99621.88;;;30.67;nan
12197;BME280;6161;43.014;25.840;2022-08-11T14:31:28;99655.94;;;30.67;nan
12197;BME280;6161;43.014;25.840;2022-08-11T14:33:55;99638.22;;;30.74;nan
12197;BME280;6161;43.014;25.840;2022-08-11T14:36:25;99629.06;;;30.68;nan
12197;BME280;6161;43.014;25.840;2022-08-11T14:38:51;99656.47;;;30.80;nan
12197;BME280;6161;43.014;25.840;2022-08-11T14:41:21;99653.16;;;30.73;nan
12197;BME280;6161;43.014;25.840;2022-08-11T14:44:07;99668.41;;;30.70;nan
12197;BME280;6161;43.014;25.840;2022-08-11T14:46:51;99659.00;;;30.56;nan
12197;BME280;6161;43.014;25.840;2022-08-11T14:49:31;99647.09;;;30.55;nan
12197;BME280;6161;43.014;25.840;2022-08-11T14:52:00;99643.50;;;30.44;nan
12197;BME280;6161;43.014;25.840;2022-08-11T14:54:29;99643.78;;;30.38;nan
12197;BME280;6161;43.014;25.840;2022-08-11T14:57:13;99639.38;;;30.37;nan
12197;BME280;6161;43.014;25.840;2022-08-11T15:02:07;99639.94;;;30.39;nan
12197;BME280;6161;43.014;25.840;2022-08-11T15:04:51;99636.03;;;30.35;nan
12197;BME280;6161;43.014;25.840;2022-08-11T15:09:44;99631.00;;;30.01;nan
12197;BME280;6161;43.014;25.840;2022-08-11T15:14:46;99603.63;;;30.04;nan
12197;BME280;6161;43.014;25.840;2022-08-11T15:17:32;99599.47;;;29.97;nan
12197;BME280;6161;43.014;25.840;2022-08-11T15:20:07;99554.09;;;29.98;nan
12197;BME280;6161;43.014;25.840;2022-08-11T15:22:52;99595.59;;;30.03;nan
12197;BME280;6161;43.014;25.840;2022-08-11T15:28:04;99594.22;;;30.05;nan
12197;BME280;6161;43.014;25.840;2022-08-11T15:30:54;99606.41;;;29.89;nan
12197;BME280;6161;43.014;25.840;2022-08-11T15:33:42;99601.69;;;29.79;nan
12197;BME280;6161;43.014;25.840;2022-08-11T15:36:28;99623.16;;;29.57;nan
12197;BME280;6161;43.014;25.840;2022-08-11T15:39:22;99590.50;;;29.49;nan
12197;BME280;6161;43.014;25.840;2022-08-11T15:42:12;99601.56;;;29.54;nan
12197;BME280;6161;43.014;25.840;2022-08-11T15:44:59;99611.75;;;29.33;nan
12197;BME280;6161;43.014;25.840;2022-08-11T15:50:16;99614.75;;;29.26;nan
12197;BME280;6161;43.014;25.840;2022-08-11T15:52:52;99615.84;;;29.25;nan
12197;BME280;6161;43.014;25.840;2022-08-11T15:55:21;99622.78;;;29.28;nan
12197;BME280;6161;43.014;25.840;2022-08-11T15:57:51;99595.34;;;29.11;nan
12197;BME280;6161;43.014;25.840;2022-08-11T16:00:38;99593.50;;;29.27;nan
12197;BME280;6161;43.014;25.840;2022-08-11T16:03:23;99596.28;;;29.32;nan
12197;BME280;6161;43.014;25.840;2022-08-11T16:06:10;99612.56;;;29.28;nan
12197;BME280;6161;43.014;25.840;2022-08-11T16:08:39;99603.97;;;29.19;nan
12197;BME280;6161;43.014;25.840;2022-08-11T16:11:07;99621.66;;;29.24;nan
12197;BME280;6161;43.014;25.840;2022-08-11T16:13:36;99593.75;;;29.20;nan
12197;BME280;6161;43.014;25.840;2022-08-11T16:16:07;99619.38;;;29.10;nan
12197;BME280;6161;43.014;25.840;2022-08-11T16:21:18;99585.06;;;29.01;nan
12197;BME280;6161;43.014;25.840;2022-08-11T16:23:45;99599.94;;;28.90;nan
12197;BME280;6161;43.014;25.840;2022-08-11T16:28:39;99554.19;;;28.62;nan
12197;BME280;6161;43.014;25.840;2022-08-11T16:31:06;99612.78;;;28.74;nan
12197;BME280;6161;43.014;25.840;2022-08-11T16:33:36;99581.09;;;28.82;nan
12197;BME280;6161;43.014;25.840;2022-08-11T16:38:49;99592.91;;;28.72;nan
12197;BME280;6161;43.014;25.840;2022-08-11T16:41:17;99596.28;;;28.84;nan
12197;BME280;6161;43.014;25.840;2022-08-11T16:44:09;99624.81;;;28.95;nan
12197;BME280;6161;43.014;25.840;2022-08-11T16:46:54;99638.09;;;29.03;nan
12197;BME280;6161;43.014;25.840;2022-08-11T16:49:35;99617.38;;;29.01;nan
12197;BME280;6161;43.014;25.840;2022-08-11T16:52:03;99618.59;;;29.15;nan
12197;BME280;6161;43.014;25.840;2022-08-11T16:54:32;99641.78;;;29.19;nan
12197;BME280;6161;43.014;25.840;2022-08-11T16:57:00;99629.09;;;29.18;nan
12197;BME280;6161;43.014;25.840;2022-08-11T16:59:47;99633.50;;;29.19;nan
12197;BME280;6161;43.014;25.840;2022-08-11T17:02:18;99617.78;;;29.19;nan
12197;BME280;6161;43.014;25.840;2022-08-11T17:05:11;99618.28;;;29.16;nan
12197;BME280;6161;43.014;25.840;2022-08-11T17:07:59;99619.63;;;29.09;nan
12197;BME280;6161;43.014;25.840;2022-08-11T17:10:49;99617.44;;;29.06;nan
12197;BME280;6161;43.014;25.840;2022-08-11T17:13:41;99638.91;;;28.98;nan
12197;BME280;6161;43.014;25.840;2022-08-11T17:16:10;99590.84;;;28.94;nan
12197;BME280;6161;43.014;25.840;2022-08-11T17:21:31;99651.75;;;28.77;nan
12197;BME280;6161;43.014;25.840;2022-08-11T17:24:03;99610.56;;;28.71;nan
12197;BME280;6161;43.014;25.840;2022-08-11T17:26:34;99606.66;;;28.62;nan
12197;BME280;6161;43.014;25.840;2022-08-11T17:31:46;99602.28;;;28.33;nan
12197;BME280;6161;43.014;25.840;2022-08-11T17:37:16;99636.88;;;28.14;nan
12197;BME280;6161;43.014;25.840;2022-08-11T17:39:43;99622.75;;;28.05;nan
12197;BME280;6161;43.014;25.840;2022-08-11T17:42:10;99623.47;;;27.96;nan
12197;BME280;6161;43.014;25.840;2022-08-11T17:44:55;99656.13;;;27.82;nan
12197;BME280;6161;43.014;25.840;2022-08-11T17:47:40;99638.06;;;27.69;nan
12197;BME280;6161;43.014;25.840;2022-08-11T17:50:25;99653.72;;;27.63;nan
12197;BME280;6161;43.014;25.840;2022-08-11T17:55:37;99677.16;;;27.44;nan
12197;BME280;6161;43.014;25.840;2022-08-11T17:58:23;99640.97;;;27.35;nan
12197;BME280;6161;43.014;25.840;2022-08-11T18:01:10;99671.97;;;27.25;nan
12197;BME280;6161;43.014;25.840;2022-08-11T18:03:38;99674.91;;;27.19;nan
12197;BME280;6161;43.014;25.840;2022-08-11T18:06:06;99674.75;;;27.09;nan
12197;BME280;6161;43.014;25.840;2022-08-11T18:11:18;99704.72;;;26.88;nan
12197;BME280;6161;43.014;25.840;2022-08-11T18:14:05;99685.13;;;26.84;nan
12197;BME280;6161;43.014;25.840;2022-08-11T18:16:49;99634.47;;;26.63;nan
12197;BME280;6161;43.014;25.840;2022-08-11T18:22:22;99665.59;;;26.52;nan
12197;BME280;6161;43.014;25.840;2022-08-11T18:27:54;99678.59;;;26.23;nan
12197;BME280;6161;43.014;25.840;2022-08-11T18:30:41;99654.84;;;26.17;nan
12197;BME280;6161;43.014;25.840;2022-08-11T18:33:26;99684.91;;;26.07;nan
12197;BME280;6161;43.014;25.840;2022-08-11T18:36:18;99700.34;;;25.96;nan
12197;BME280;6161;43.014;25.840;2022-08-11T18:39:05;99692.88;;;25.91;nan
12197;BME280;6161;43.014;25.840;2022-08-11T18:50:08;99670.25;;;25.61;nan
12197;BME280;6161;43.014;25.840;2022-08-11T18:52:54;99706.84;;;25.49;nan
12197;BME280;6161;43.014;25.840;2022-08-11T18:55:42;99674.22;;;25.41;nan
12197;BME280;6161;43.014;25.840;2022-08-11T18:58:30;99678.69;;;25.30;nan
12197;BME280;6161;43.014;25.840;2022-08-11T19:01:15;99667.34;;;25.15;nan
12197;BME280;6161;43.014;25.840;2022-08-11T19:04:02;99703.03;;;25.03;nan
12197;BME280;6161;43.014;25.840;2022-08-11T19:06:50;99687.31;;;24.87;nan
12197;BME280;6161;43.014;25.840;2022-08-11T19:09:39;99670.34;;;24.66;nan
12197;BME280;6161;43.014;25.840;2022-08-11T19:15:11;99705.53;;;24.58;nan
12197;BME280;6161;43.014;25.840;2022-08-11T19:17:56;99711.72;;;24.53;nan
12197;BME280;6161;43.014;25.840;2022-08-11T19:20:41;99722.31;;;24.49;nan
12197;BME280;6161;43.014;25.840;2022-08-11T19:23:40;99709.53;;;24.43;nan
12197;BME280;6161;43.014;25.840;2022-08-11T19:26:25;99724.03;;;24.32;nan
12197;BME280;6161;43.014;25.840;2022-08-11T19:29:10;99692.09;;;24.26;nan
12197;BME280;6161;43.014;25.840;2022-08-11T19:31:55;99696.47;;;24.15;nan
12197;BME280;6161;43.014;25.840;2022-08-11T19:34:41;99682.03;;;24.08;nan
12197;BME280;6161;43.014;25.840;2022-08-11T19:37:26;99694.38;;;23.99;nan
12197;BME280;6161;43.014;25.840;2022-08-11T19:40:12;99723.63;;;23.86;nan
12197;BME280;6161;43.014;25.840;2022-08-11T19:42:57;99678.75;;;23.88;nan